Forbes Field
KFOE : rendu visible

Aérodrome :











RETROUVEZ-NOUS SUR...

 
LOGIN :

S'inscrire | Disclaimer

   EN    FR    IT 

 









Légende :    VFR   VFR Marginal   IFR   IFR Intensif   IFR Très Intensif
Visi : 
Plafond : 
>= 8 km
>= 3000ft
5 à 8 km
1000 à 3000 ft
1500m à 5 km
500 à 1000 ft
800 à 1500m
200 à 500 ft
< 800m
< 200 ft
Symboles :   Orages  Brouillard  Fortes neiges  Fortes précipitations  Vent > 20 kt






- Altitude de l'aérodrome : 1078 ft
- Code IATA : FOE


KFOE - Forbes Field

DERNIER METAR :
  • 180553Z AUTO 17012KT 10SM CLR 13/07 A2982 RMK AO2 SLP092 T01330072 10161 20133 402220028 58007

METARs EXPIRÉS :
  • 180453Z AUTO 17011KT 10SM CLR 13/07 A2983 RMK AO2 SLP098 T01330072
  • 180353Z AUTO 16009KT 10SM CLR 13/07 A2984 RMK AO2 SLP101 T01330072

TAF KFOE
Valide du 18 à 06h jusqu'au 19 à 06h UTC


180520Z 1806/1906 16012KT P6SM BKN250 WS020/21045KT
FM181500 17022G36KT P6SM FEW250
FM182300 17012KT P6SM SCT100



MET'MAP, la Météo Aéronautique d'un coup d'oeil ! - Copyright ORBIFLY Décembre 2007 - Disclaimer

ORBIFLY MET'MAP TEAM :

Programmation & Développement : Alexandra Zaïnal
Conception & Développement : Baudouin d'Aumeries
Co-Programmation & Développement : Marc-Olivier Méhu
Soutien technique & logistique : Manuel Goepfert

Contact : metmap@orbifly.com




SOURCES & CREDITS :

   NOAA       Earth
Advisory